sensor_id;sensor_type;location;lat;lon;timestamp;pressure;altitude;pressure_sealevel;temperature;humidity
34586;BME280;20816;50.950;11.108;2022-12-07T00:01:39;98315.09;;;1.48;100.00
34586;BME280;20816;50.950;11.108;2022-12-07T00:04:09;98316.75;;;1.46;100.00
34586;BME280;20816;50.950;11.108;2022-12-07T00:06:40;98319.34;;;1.43;100.00
34586;BME280;20816;50.950;11.108;2022-12-07T00:09:10;98315.88;;;1.40;100.00
34586;BME280;20816;50.950;11.108;2022-12-07T00:11:37;98312.34;;;1.32;100.00
34586;BME280;20816;50.950;11.108;2022-12-07T00:14:11;98320.09;;;1.32;100.00
34586;BME280;20816;50.950;11.108;2022-12-07T00:16:39;98310.63;;;1.34;100.00
34586;BME280;20816;50.950;11.108;2022-12-07T00:19:06;98314.00;;;1.27;100.00
34586;BME280;20816;50.950;11.108;2022-12-07T00:21:35;98320.97;;;1.33;100.00
34586;BME280;20816;50.950;11.108;2022-12-07T00:24:03;98309.66;;;1.23;100.00
34586;BME280;20816;50.950;11.108;2022-12-07T00:26:37;98296.75;;;1.28;100.00
34586;BME280;20816;50.950;11.108;2022-12-07T00:29:06;98296.81;;;1.35;100.00
34586;BME280;20816;50.950;11.108;2022-12-07T00:31:35;98291.56;;;1.26;100.00
34586;BME280;20816;50.950;11.108;2022-12-07T00:34:06;98288.91;;;1.22;100.00
34586;BME280;20816;50.950;11.108;2022-12-07T00:36:33;98287.16;;;1.18;100.00
34586;BME280;20816;50.950;11.108;2022-12-07T00:39:00;98286.31;;;1.19;100.00
34586;BME280;20816;50.950;11.108;2022-12-07T00:41:28;98285.53;;;1.27;100.00
34586;BME280;20816;50.950;11.108;2022-12-07T00:43:55;98283.78;;;1.25;100.00
34586;BME280;20816;50.950;11.108;2022-12-07T00:46:22;98283.81;;;1.28;100.00
34586;BME280;20816;50.950;11.108;2022-12-07T00:48:51;98284.75;;;1.34;100.00
34586;BME280;20816;50.950;11.108;2022-12-07T00:51:21;98282.22;;;1.44;100.00
34586;BME280;20816;50.950;11.108;2022-12-07T00:53:48;98289.97;;;1.39;100.00
34586;BME280;20816;50.950;11.108;2022-12-07T00:56:20;98284.75;;;1.37;100.00
34586;BME280;20816;50.950;11.108;2022-12-07T00:58:54;98275.41;;;1.53;100.00
34586;BME280;20816;50.950;11.108;2022-12-07T01:01:23;98274.59;;;1.56;100.00
34586;BME280;20816;50.950;11.108;2022-12-07T01:03:50;98280.59;;;1.53;100.00
34586;BME280;20816;50.950;11.108;2022-12-07T01:06:19;98266.75;;;1.51;100.00
34586;BME280;20816;50.950;11.108;2022-12-07T01:08:46;98269.38;;;1.53;100.00
34586;BME280;20816;50.950;11.108;2022-12-07T01:11:18;98270.28;;;1.56;100.00
34586;BME280;20816;50.950;11.108;2022-12-07T01:13:45;98258.25;;;1.66;100.00
34586;BME280;20816;50.950;11.108;2022-12-07T01:16:15;98262.59;;;1.70;100.00
34586;BME280;20816;50.950;11.108;2022-12-07T01:18:42;98259.06;;;1.59;100.00
34586;BME280;20816;50.950;11.108;2022-12-07T01:21:20;98254.72;;;1.56;100.00
34586;BME280;20816;50.950;11.108;2022-12-07T01:23:48;98250.41;;;1.57;100.00
34586;BME280;20816;50.950;11.108;2022-12-07T01:26:17;98251.28;;;1.60;100.00
34586;BME280;20816;50.950;11.108;2022-12-07T01:28:44;98256.53;;;1.68;100.00
34586;BME280;20816;50.950;11.108;2022-12-07T01:31:17;98245.25;;;1.60;100.00
34586;BME280;20816;50.950;11.108;2022-12-07T01:33:47;98240.94;;;1.60;100.00
34586;BME280;20816;50.950;11.108;2022-12-07T01:36:20;98243.44;;;1.50;100.00
34586;BME280;20816;50.950;11.108;2022-12-07T01:38:50;98241.78;;;1.58;100.00
34586;BME280;20816;50.950;11.108;2022-12-07T01:41:20;98235.75;;;1.60;100.00
34586;BME280;20816;50.950;11.108;2022-12-07T01:46:35;98233.16;;;1.59;100.00
34586;BME280;20816;50.950;11.108;2022-12-07T01:49:05;98227.16;;;1.63;100.00
34586;BME280;20816;50.950;11.108;2022-12-07T01:51:32;98227.25;;;1.78;100.00
34586;BME280;20816;50.950;11.108;2022-12-07T01:54:00;98217.75;;;1.74;100.00
34586;BME280;20816;50.950;11.108;2022-12-07T01:56:28;98227.16;;;1.63;100.00
34586;BME280;20816;50.950;11.108;2022-12-07T01:58:56;98218.53;;;1.67;100.00
34586;BME280;20816;50.950;11.108;2022-12-07T02:01:24;98215.97;;;1.67;100.00
34586;BME280;20816;50.950;11.108;2022-12-07T02:03:52;98211.59;;;1.61;100.00
34586;BME280;20816;50.950;11.108;2022-12-07T02:06:22;98210.78;;;1.67;100.00
34586;BME280;20816;50.950;11.108;2022-12-07T02:08:50;98203.06;;;1.75;100.00
34586;BME280;20816;50.950;11.108;2022-12-07T02:11:18;98198.69;;;1.67;100.00
34586;BME280;20816;50.950;11.108;2022-12-07T02:13:46;98207.38;;;1.71;100.00
34586;BME280;20816;50.950;11.108;2022-12-07T02:16:28;98198.75;;;1.75;100.00
34586;BME280;20816;50.950;11.108;2022-12-07T02:24:19;98205.75;;;1.88;100.00
34586;BME280;20816;50.950;11.108;2022-12-07T02:27:12;98202.28;;;1.88;100.00
34586;BME280;20816;50.950;11.108;2022-12-07T02:29:50;98199.72;;;1.89;100.00
34586;BME280;20816;50.950;11.108;2022-12-07T02:37:39;98194.56;;;1.95;100.00
34586;BME280;20816;50.950;11.108;2022-12-07T02:40:13;98196.25;;;1.92;100.00
34586;BME280;20816;50.950;11.108;2022-12-07T02:42:57;98190.25;;;2.01;100.00
34586;BME280;20816;50.950;11.108;2022-12-07T02:45:27;98187.69;;;2.07;100.00
34586;BME280;20816;50.950;11.108;2022-12-07T02:47:58;98191.97;;;1.99;100.00
34586;BME280;20816;50.950;11.108;2022-12-07T02:50:26;98182.53;;;2.05;100.00
34586;BME280;20816;50.950;11.108;2022-12-07T02:52:54;98179.91;;;2.04;100.00
34586;BME280;20816;50.950;11.108;2022-12-07T02:55:45;98177.28;;;1.96;100.00
34586;BME280;20816;50.950;11.108;2022-12-07T02:58:18;98168.69;;;2.06;100.00
34586;BME280;20816;50.950;11.108;2022-12-07T03:01:16;98176.44;;;1.99;100.00
34586;BME280;20816;50.950;11.108;2022-12-07T03:03:56;98166.88;;;1.94;100.00
34586;BME280;20816;50.950;11.108;2022-12-07T03:06:32;98171.25;;;1.99;100.00
34586;BME280;20816;50.950;11.108;2022-12-07T03:09:14;98171.25;;;1.99;100.00
34586;BME280;20816;50.950;11.108;2022-12-07T03:11:51;98160.06;;;2.06;100.00
34586;BME280;20816;50.950;11.108;2022-12-07T03:14:35;98154.91;;;2.15;100.00
34586;BME280;20816;50.950;11.108;2022-12-07T03:17:18;98163.50;;;2.06;100.00
34586;BME280;20816;50.950;11.108;2022-12-07T03:19:49;98161.75;;;2.02;100.00
34586;BME280;20816;50.950;11.108;2022-12-07T03:22:17;98166.97;;;2.04;100.00
34586;BME280;20816;50.950;11.108;2022-12-07T03:24:49;98159.19;;;2.10;100.00
34586;BME280;20816;50.950;11.108;2022-12-07T03:33:57;98137.63;;;2.14;100.00
34586;BME280;20816;50.950;11.108;2022-12-07T03:35:59;98137.63;;;2.15;100.00
34586;BME280;20816;50.950;11.108;2022-12-07T03:38:33;98141.94;;;2.18;100.00
34586;BME280;20816;50.950;11.108;2022-12-07T03:41:09;98141.97;;;2.21;100.00
34586;BME280;20816;50.950;11.108;2022-12-07T03:43:40;98141.97;;;2.21;100.00
34586;BME280;20816;50.950;11.108;2022-12-07T03:51:54;98141.94;;;2.13;100.00
34586;BME280;20816;50.950;11.108;2022-12-07T03:54:28;98135.91;;;2.14;100.00
34586;BME280;20816;50.950;11.108;2022-12-07T03:56:56;98143.66;;;2.10;100.00
34586;BME280;20816;50.950;11.108;2022-12-07T03:59:26;98151.41;;;2.08;100.00
34586;BME280;20816;50.950;11.108;2022-12-07T04:01:55;98141.94;;;2.12;100.00
34586;BME280;20816;50.950;11.108;2022-12-07T04:04:24;98151.41;;;2.10;100.00
34586;BME280;20816;50.950;11.108;2022-12-07T04:06:51;98141.03;;;2.04;100.00
34586;BME280;20816;50.950;11.108;2022-12-07T04:09:17;98147.06;;;2.03;100.00
34586;BME280;20816;50.950;11.108;2022-12-07T04:11:44;98148.81;;;2.10;100.00
34586;BME280;20816;50.950;11.108;2022-12-07T04:14:11;98154.00;;;2.10;100.00
34586;BME280;20816;50.950;11.108;2022-12-07T04:16:48;98141.06;;;2.11;100.00
34586;BME280;20816;50.950;11.108;2022-12-07T04:19:16;98145.41;;;2.17;100.00
34586;BME280;20816;50.950;11.108;2022-12-07T04:21:43;98142.81;;;2.14;100.00
34586;BME280;20816;50.950;11.108;2022-12-07T04:24:11;98141.91;;;2.10;100.00
34586;BME280;20816;50.950;11.108;2022-12-07T04:26:37;98149.69;;;2.10;100.00
34586;BME280;20816;50.950;11.108;2022-12-07T04:29:04;98147.13;;;2.12;100.00
34586;BME280;20816;50.950;11.108;2022-12-07T04:31:33;98147.13;;;2.18;100.00
34586;BME280;20816;50.950;11.108;2022-12-07T04:34:00;98147.16;;;2.21;100.00
34586;BME280;20816;50.950;11.108;2022-12-07T04:36:27;98141.13;;;2.25;100.00
34586;BME280;20816;50.950;11.108;2022-12-07T04:38:54;98147.16;;;2.21;100.00
34586;BME280;20816;50.950;11.108;2022-12-07T04:41:22;98145.44;;;2.20;100.00
34586;BME280;20816;50.950;11.108;2022-12-07T04:44:01;98134.19;;;2.27;100.00
34586;BME280;20816;50.950;11.108;2022-12-07T04:46:29;98135.09;;;2.29;100.00
34586;BME280;20816;50.950;11.108;2022-12-07T04:48:57;98129.88;;;2.23;100.00
34586;BME280;20816;50.950;11.108;2022-12-07T04:51:26;98135.06;;;2.26;100.00
34586;BME280;20816;50.950;11.108;2022-12-07T04:53:55;98131.63;;;2.21;100.00
34586;BME280;20816;50.950;11.108;2022-12-07T04:56:23;98132.47;;;2.26;100.00
34586;BME280;20816;50.950;11.108;2022-12-07T04:58:52;98129.03;;;2.33;100.00
34586;BME280;20816;50.950;11.108;2022-12-07T05:01:20;98118.66;;;2.27;100.00
34586;BME280;20816;50.950;11.108;2022-12-07T05:03:47;98123.00;;;2.33;100.00
34586;BME280;20816;50.950;11.108;2022-12-07T05:06:14;98129.91;;;2.29;100.00
34586;BME280;20816;50.950;11.108;2022-12-07T05:08:41;98125.56;;;2.25;100.00
34586;BME280;20816;50.950;11.108;2022-12-07T05:11:09;98126.47;;;2.38;100.00
34586;BME280;20816;50.950;11.108;2022-12-07T05:13:56;98125.59;;;2.33;100.00
34586;BME280;20816;50.950;11.108;2022-12-07T05:16:23;98124.75;;;2.38;100.00
34586;BME280;20816;50.950;11.108;2022-12-07T05:18:50;98122.13;;;2.35;100.00
34586;BME280;20816;50.950;11.108;2022-12-07T05:21:17;98123.00;;;2.30;100.00
34586;BME280;20816;50.950;11.108;2022-12-07T05:23:45;98128.22;;;2.37;100.00
34586;BME280;20816;50.950;11.108;2022-12-07T05:26:12;98132.53;;;2.38;100.00
34586;BME280;20816;50.950;11.108;2022-12-07T05:28:39;98127.34;;;2.41;100.00
34586;BME280;20816;50.950;11.108;2022-12-07T05:31:05;98135.16;;;2.44;100.00
34586;BME280;20816;50.950;11.108;2022-12-07T05:33:32;98132.53;;;2.49;100.00
34586;BME280;20816;50.950;11.108;2022-12-07T05:35:59;98126.50;;;2.45;100.00
34586;BME280;20816;50.950;11.108;2022-12-07T05:38:32;98123.03;;;2.40;100.00
34586;BME280;20816;50.950;11.108;2022-12-07T05:41:00;98125.63;;;2.40;100.00
34586;BME280;20816;50.950;11.108;2022-12-07T05:43:28;98126.47;;;2.39;100.00
34586;BME280;20816;50.950;11.108;2022-12-07T05:45:55;98133.38;;;2.40;100.00
34586;BME280;20816;50.950;11.108;2022-12-07T05:48:22;98137.75;;;2.47;100.00
34586;BME280;20816;50.950;11.108;2022-12-07T05:50:49;98128.25;;;2.52;100.00
34586;BME280;20816;50.950;11.108;2022-12-07T05:53:16;98129.97;;;2.60;100.00
34586;BME280;20816;50.950;11.108;2022-12-07T05:55:48;98130.84;;;2.52;100.00
34586;BME280;20816;50.950;11.108;2022-12-07T05:58:15;98142.09;;;2.55;100.00
34586;BME280;20816;50.950;11.108;2022-12-07T06:01:00;98135.13;;;2.50;100.00
34586;BME280;20816;50.950;11.108;2022-12-07T06:03:27;98132.56;;;2.47;100.00
34586;BME280;20816;50.950;11.108;2022-12-07T06:05:54;98145.53;;;2.53;100.00
34586;BME280;20816;50.950;11.108;2022-12-07T06:08:20;98144.66;;;2.51;100.00
34586;BME280;20816;50.950;11.108;2022-12-07T06:10:47;98147.25;;;2.51;100.00
34586;BME280;20816;50.950;11.108;2022-12-07T06:13:35;98147.25;;;2.48;100.00
34586;BME280;20816;50.950;11.108;2022-12-07T06:16:02;98138.63;;;2.54;100.00
34586;BME280;20816;50.950;11.108;2022-12-07T06:18:29;98145.53;;;2.53;100.00
34586;BME280;20816;50.950;11.108;2022-12-07T06:20:55;98142.06;;;2.48;100.00
34586;BME280;20816;50.950;11.108;2022-12-07T06:23:22;98141.25;;;2.62;100.00
34586;BME280;20816;50.950;11.108;2022-12-07T06:25:48;98139.50;;;2.55;100.00
34586;BME280;20816;50.950;11.108;2022-12-07T06:28:15;98144.66;;;2.50;100.00
34586;BME280;20816;50.950;11.108;2022-12-07T06:30:42;98145.50;;;2.38;100.00
34586;BME280;20816;50.950;11.108;2022-12-07T06:33:08;98136.84;;;2.39;100.00
34586;BME280;20816;50.950;11.108;2022-12-07T06:35:35;98146.34;;;2.42;100.00
34586;BME280;20816;50.950;11.108;2022-12-07T06:38:02;98144.59;;;2.35;100.00
34586;BME280;20816;50.950;11.108;2022-12-07T06:40:29;98142.00;;;2.30;100.00
34586;BME280;20816;50.950;11.108;2022-12-07T06:42:55;98152.34;;;2.24;100.00
34586;BME280;20816;50.950;11.108;2022-12-07T06:45:22;98148.88;;;2.27;100.00
34586;BME280;20816;50.950;11.108;2022-12-07T06:47:49;98150.63;;;2.20;100.00
34586;BME280;20816;50.950;11.108;2022-12-07T06:50:16;98151.44;;;2.19;100.00
34586;BME280;20816;50.950;11.108;2022-12-07T06:52:42;98142.84;;;2.28;100.00
34586;BME280;20816;50.950;11.108;2022-12-07T06:55:09;98148.94;;;2.28;100.00
34586;BME280;20816;50.950;11.108;2022-12-07T06:57:36;98141.13;;;2.27;100.00
34586;BME280;20816;50.950;11.108;2022-12-07T07:00:03;98152.34;;;2.24;100.00
34586;BME280;20816;50.950;11.108;2022-12-07T07:02:30;98133.38;;;2.34;100.00
34586;BME280;20816;50.950;11.108;2022-12-07T07:04:57;98142.88;;;2.29;100.00
34586;BME280;20816;50.950;11.108;2022-12-07T07:07:24;98140.28;;;2.32;100.00
34586;BME280;20816;50.950;11.108;2022-12-07T07:09:50;98143.75;;;2.31;100.00
34586;BME280;20816;50.950;11.108;2022-12-07T07:12:17;98147.19;;;2.30;100.00
34586;BME280;20816;50.950;11.108;2022-12-07T07:14:44;98149.81;;;2.38;100.00
34586;BME280;20816;50.950;11.108;2022-12-07T07:17:10;98148.09;;;2.37;100.00
34586;BME280;20816;50.950;11.108;2022-12-07T07:19:37;98151.53;;;2.40;100.00
34586;BME280;20816;50.950;11.108;2022-12-07T07:22:04;98157.59;;;2.42;100.00
34586;BME280;20816;50.950;11.108;2022-12-07T07:24:30;98157.59;;;2.36;100.00
34586;BME280;20816;50.950;11.108;2022-12-07T07:26:57;98149.78;;;2.33;100.00
34586;BME280;20816;50.950;11.108;2022-12-07T07:29:24;98151.50;;;2.30;100.00
34586;BME280;20816;50.950;11.108;2022-12-07T07:31:50;98155.88;;;2.41;100.00
34586;BME280;20816;50.950;11.108;2022-12-07T07:34:17;98151.59;;;2.52;100.00
34586;BME280;20816;50.950;11.108;2022-12-07T07:36:44;98148.09;;;2.49;100.00
34586;BME280;20816;50.950;11.108;2022-12-07T07:39:11;98152.44;;;2.51;100.00
34586;BME280;20816;50.950;11.108;2022-12-07T07:41:39;98154.19;;;2.59;100.00
34586;BME280;20816;50.950;11.108;2022-12-07T07:44:05;98153.28;;;2.50;100.00
34586;BME280;20816;50.950;11.108;2022-12-07T07:46:32;98150.72;;;2.47;100.00
34586;BME280;20816;50.950;11.108;2022-12-07T07:48:59;98156.72;;;2.43;100.00
34586;BME280;20816;50.950;11.108;2022-12-07T07:51:26;98147.28;;;2.55;100.00
34586;BME280;20816;50.950;11.108;2022-12-07T07:53:53;98149.88;;;2.56;100.00
34586;BME280;20816;50.950;11.108;2022-12-07T07:56:20;98145.56;;;2.66;100.00
34586;BME280;20816;50.950;11.108;2022-12-07T07:58:46;98150.75;;;2.72;100.00
34586;BME280;20816;50.950;11.108;2022-12-07T08:01:13;98142.13;;;2.73;100.00
34586;BME280;20816;50.950;11.108;2022-12-07T08:03:41;98151.66;;;2.81;100.00
34586;BME280;20816;50.950;11.108;2022-12-07T08:06:08;98147.34;;;2.88;100.00
34586;BME280;20816;50.950;11.108;2022-12-07T08:08:34;98153.38;;;2.84;100.00
34586;BME280;20816;50.950;11.108;2022-12-07T08:11:05;98158.56;;;2.92;100.00
34586;BME280;20816;50.950;11.108;2022-12-07T08:13:32;98150.78;;;2.84;100.00
34586;BME280;20816;50.950;11.108;2022-12-07T08:16:03;98155.97;;;2.78;100.00
34586;BME280;20816;50.950;11.108;2022-12-07T08:18:30;98158.53;;;2.76;100.00
34586;BME280;20816;50.950;11.108;2022-12-07T08:21:00;98164.66;;;2.86;100.00
34586;BME280;20816;50.950;11.108;2022-12-07T08:23:30;98161.13;;;2.75;100.00
34586;BME280;20816;50.950;11.108;2022-12-07T08:26:07;98172.38;;;2.71;100.00
34586;BME280;20816;50.950;11.108;2022-12-07T08:28:34;98175.00;;;2.77;100.00
34586;BME280;20816;50.950;11.108;2022-12-07T08:31:03;98169.78;;;2.74;100.00
34586;BME280;20816;50.950;11.108;2022-12-07T08:33:31;98178.47;;;2.79;100.00
34586;BME280;20816;50.950;11.108;2022-12-07T08:36:02;98186.25;;;2.93;100.00
34586;BME280;20816;50.950;11.108;2022-12-07T08:38:29;98188.88;;;2.94;100.00
34586;BME280;20816;50.950;11.108;2022-12-07T08:40:58;98179.38;;;3.04;100.00
34586;BME280;20816;50.950;11.108;2022-12-07T08:43:25;98178.53;;;3.28;100.00
34586;BME280;20816;50.950;11.108;2022-12-07T08:46:03;98176.78;;;3.21;100.00
34586;BME280;20816;50.950;11.108;2022-12-07T08:48:36;98180.25;;;3.29;100.00
34586;BME280;20816;50.950;11.108;2022-12-07T08:51:03;98175.91;;;3.29;100.00
34586;BME280;20816;50.950;11.108;2022-12-07T08:53:32;98176.81;;;3.34;100.00
34586;BME280;20816;50.950;11.108;2022-12-07T08:56:00;98173.34;;;3.43;100.00
34586;BME280;20816;50.950;11.108;2022-12-07T08:58:27;98177.66;;;3.43;100.00
34586;BME280;20816;50.950;11.108;2022-12-07T09:00:54;98172.44;;;3.56;100.00
34586;BME280;20816;50.950;11.108;2022-12-07T09:03:20;98183.72;;;3.68;100.00
34586;BME280;20816;50.950;11.108;2022-12-07T09:05:47;98175.91;;;3.75;100.00
34586;BME280;20816;50.950;11.108;2022-12-07T09:08:14;98178.47;;;3.80;100.00
34586;BME280;20816;50.950;11.108;2022-12-07T09:10:41;98175.03;;;3.69;100.00
34586;BME280;20816;50.950;11.108;2022-12-07T09:13:08;98173.31;;;3.61;100.00
34586;BME280;20816;50.950;11.108;2022-12-07T09:15:34;98175.03;;;3.62;100.00
34586;BME280;20816;50.950;11.108;2022-12-07T09:18:01;98174.19;;;3.48;100.00
34586;BME280;20816;50.950;11.108;2022-12-07T09:20:28;98171.59;;;3.42;100.00
34586;BME280;20816;50.950;11.108;2022-12-07T09:22:55;98173.34;;;3.34;100.00
34586;BME280;20816;50.950;11.108;2022-12-07T09:25:21;98176.78;;;3.36;100.00
34586;BME280;20816;50.950;11.108;2022-12-07T09:27:55;98188.03;;;3.38;100.00
34586;BME280;20816;50.950;11.108;2022-12-07T09:30:21;98182.00;;;3.42;100.00
34586;BME280;20816;50.950;11.108;2022-12-07T09:32:48;98176.78;;;3.45;100.00
34586;BME280;20816;50.950;11.108;2022-12-07T09:35:15;98178.53;;;3.52;100.00
34586;BME280;20816;50.950;11.108;2022-12-07T09:37:42;98181.13;;;3.60;100.00
34586;BME280;20816;50.950;11.108;2022-12-07T09:40:08;98175.91;;;3.60;100.00
34586;BME280;20816;50.950;11.108;2022-12-07T09:42:38;98172.44;;;3.62;100.00
34586;BME280;20816;50.950;11.108;2022-12-07T09:45:12;98176.75;;;3.70;100.00
34586;BME280;20816;50.950;11.108;2022-12-07T09:47:40;98175.91;;;3.64;100.00
34586;BME280;20816;50.950;11.108;2022-12-07T09:50:13;98173.31;;;3.61;100.00
34586;BME280;20816;50.950;11.108;2022-12-07T09:52:41;98166.38;;;3.63;100.00
34586;BME280;20816;50.950;11.108;2022-12-07T09:55:13;98161.19;;;3.60;100.00
34586;BME280;20816;50.950;11.108;2022-12-07T09:57:41;98156.84;;;3.56;100.00
34586;BME280;20816;50.950;11.108;2022-12-07T10:00:16;98162.03;;;3.62;100.00
34586;BME280;20816;50.950;11.108;2022-12-07T10:03:07;98156.88;;;3.53;100.00
34586;BME280;20816;50.950;11.108;2022-12-07T10:05:37;98155.97;;;3.73;100.00
34586;BME280;20816;50.950;11.108;2022-12-07T10:08:08;98155.97;;;3.70;100.00
34586;BME280;20816;50.950;11.108;2022-12-07T10:10:37;98152.50;;;3.71;100.00
34586;BME280;20816;50.950;11.108;2022-12-07T10:13:09;98157.66;;;3.87;100.00
34586;BME280;20816;50.950;11.108;2022-12-07T10:15:44;98163.75;;;3.85;100.00
34586;BME280;20816;50.950;11.108;2022-12-07T10:18:43;98159.41;;;3.87;100.00
34586;BME280;20816;50.950;11.108;2022-12-07T10:21:19;98149.00;;;3.81;100.00
34586;BME280;20816;50.950;11.108;2022-12-07T10:24:05;98152.47;;;3.86;100.00
34586;BME280;20816;50.950;11.108;2022-12-07T10:26:50;98149.91;;;3.83;100.00
34586;BME280;20816;50.950;11.108;2022-12-07T10:29:31;98147.28;;;3.86;100.00
34586;BME280;20816;50.950;11.108;2022-12-07T10:32:02;98152.47;;;3.86;100.00
34586;BME280;20816;50.950;11.108;2022-12-07T10:34:35;98142.94;;;3.88;100.00
34586;BME280;20816;50.950;11.108;2022-12-07T10:42:20;98142.94;;;3.74;100.00
34586;BME280;20816;50.950;11.108;2022-12-07T10:44:49;98145.56;;;3.76;100.00
34586;BME280;20816;50.950;11.108;2022-12-07T10:47:40;98143.84;;;3.78;100.00
34586;BME280;20816;50.950;11.108;2022-12-07T10:50:41;98136.06;;;3.67;100.00
34586;BME280;20816;50.950;11.108;2022-12-07T10:53:44;98139.47;;;3.81;100.00
34586;BME280;20816;50.950;11.108;2022-12-07T11:02:20;98145.47;;;4.15;100.00
34586;BME280;20816;50.950;11.108;2022-12-07T11:05:02;98145.47;;;4.09;100.00
34586;BME280;20816;50.950;11.108;2022-12-07T11:08:38;98146.31;;;4.19;100.00
34586;BME280;20816;50.950;11.108;2022-12-07T11:13:04;98133.19;;;4.39;100.00
34586;BME280;20816;50.950;11.108;2022-12-07T11:18:24;98138.28;;;4.63;100.00
34586;BME280;20816;50.950;11.108;2022-12-07T11:21:27;98134.66;;;4.86;100.00
34586;BME280;20816;50.950;11.108;2022-12-07T11:25:00;98129.31;;;5.04;100.00
34586;BME280;20816;50.950;11.108;2022-12-07T11:27:19;98137.19;;;4.99;100.00
34586;BME280;20816;50.950;11.108;2022-12-07T11:32:45;98131.25;;;4.81;100.00
34586;BME280;20816;50.950;11.108;2022-12-07T11:37:42;98133.09;;;4.65;100.00
34586;BME280;20816;50.950;11.108;2022-12-07T11:40:27;98127.88;;;4.62;100.00
34586;BME280;20816;50.950;11.108;2022-12-07T11:43:13;98139.22;;;4.56;100.00
34586;BME280;20816;50.950;11.108;2022-12-07T11:45:44;98126.25;;;4.48;100.00
34586;BME280;20816;50.950;11.108;2022-12-07T11:48:32;98120.19;;;4.39;100.00
34586;BME280;20816;50.950;11.108;2022-12-07T11:51:02;98121.00;;;4.47;100.00
34586;BME280;20816;50.950;11.108;2022-12-07T11:53:35;98111.53;;;4.41;100.00
34586;BME280;20816;50.950;11.108;2022-12-07T11:56:16;98117.63;;;4.36;100.00
34586;BME280;20816;50.950;11.108;2022-12-07T12:04:22;98105.50;;;4.32;100.00
34586;BME280;20816;50.950;11.108;2022-12-07T12:06:50;98107.25;;;4.33;100.00
34586;BME280;20816;50.950;11.108;2022-12-07T12:09:22;98106.34;;;4.37;100.00
34586;BME280;20816;50.950;11.108;2022-12-07T12:20:50;98093.41;;;4.25;100.00
34586;BME280;20816;50.950;11.108;2022-12-07T12:25:59;98094.38;;;4.01;100.00
34586;BME280;20816;50.950;11.108;2022-12-07T12:28:41;98082.25;;;3.97;100.00
34586;BME280;20816;50.950;11.108;2022-12-07T12:33:50;98098.69;;;4.03;100.00
34586;BME280;20816;50.950;11.108;2022-12-07T12:36:24;98096.91;;;4.11;100.00
34586;BME280;20816;50.950;11.108;2022-12-07T12:47:40;98092.50;;;4.33;100.00
34586;BME280;20816;50.950;11.108;2022-12-07T12:50:25;98088.22;;;4.18;100.00
34586;BME280;20816;50.950;11.108;2022-12-07T13:03:54;98072.81;;;3.76;100.00
34586;BME280;20816;50.950;11.108;2022-12-07T13:08:53;98078.88;;;3.72;100.00
34586;BME280;20816;50.950;11.108;2022-12-07T13:11:32;98070.22;;;3.70;100.00
34586;BME280;20816;50.950;11.108;2022-12-07T13:14:35;98072.81;;;3.63;100.00
34586;BME280;20816;50.950;11.108;2022-12-07T13:17:02;98072.84;;;3.67;100.00
34586;BME280;20816;50.950;11.108;2022-12-07T13:27:54;98066.78;;;3.57;100.00
34586;BME280;20816;50.950;11.108;2022-12-07T13:30:22;98072.84;;;3.59;100.00
34586;BME280;20816;50.950;11.108;2022-12-07T13:32:57;98067.63;;;3.57;100.00
34586;BME280;20816;50.950;11.108;2022-12-07T13:38:02;98060.72;;;3.59;100.00
34586;BME280;20816;50.950;11.108;2022-12-07T13:40:30;98063.31;;;3.58;100.00
34586;BME280;20816;50.950;11.108;2022-12-07T13:42:59;98067.63;;;3.67;100.00
34586;BME280;20816;50.950;11.108;2022-12-07T13:45:29;98062.44;;;3.67;100.00
34586;BME280;20816;50.950;11.108;2022-12-07T13:48:21;98060.72;;;3.62;100.00
34586;BME280;20816;50.950;11.108;2022-12-07T13:50:55;98065.03;;;3.68;100.00
34586;BME280;20816;50.950;11.108;2022-12-07T13:53:22;98058.97;;;3.63;100.00
34586;BME280;20816;50.950;11.108;2022-12-07T13:55:50;98063.31;;;3.59;100.00
34586;BME280;20816;50.950;11.108;2022-12-07T13:58:21;98060.75;;;3.50;100.00
34586;BME280;20816;50.950;11.108;2022-12-07T14:00:48;98070.28;;;3.51;100.00
34586;BME280;20816;50.950;11.108;2022-12-07T14:05:44;98063.34;;;3.50;100.00
34586;BME280;20816;50.950;11.108;2022-12-07T14:10:53;98064.22;;;3.46;100.00
34586;BME280;20816;50.950;11.108;2022-12-07T14:13:32;98052.09;;;3.45;100.00
34586;BME280;20816;50.950;11.108;2022-12-07T14:16:05;98059.88;;;3.48;100.00
34586;BME280;20816;50.950;11.108;2022-12-07T14:18:43;98057.31;;;3.39;100.00
34586;BME280;20816;50.950;11.108;2022-12-07T14:23:38;98059.03;;;3.37;100.00
34586;BME280;20816;50.950;11.108;2022-12-07T14:26:12;98055.56;;;3.44;100.00
34586;BME280;20816;50.950;11.108;2022-12-07T14:28:43;98059.03;;;3.46;100.00
34586;BME280;20816;50.950;11.108;2022-12-07T14:31:15;98049.53;;;3.42;100.00
34586;BME280;20816;50.950;11.108;2022-12-07T14:33:59;98053.84;;;3.43;100.00
34586;BME280;20816;50.950;11.108;2022-12-07T14:36:25;98045.19;;;3.44;100.00
34586;BME280;20816;50.950;11.108;2022-12-07T14:38:52;98039.13;;;3.25;100.00
34586;BME280;20816;50.950;11.108;2022-12-07T14:41:22;98042.63;;;3.17;100.00
34586;BME280;20816;50.950;11.108;2022-12-07T14:44:12;98040.03;;;3.14;100.00
34586;BME280;20816;50.950;11.108;2022-12-07T14:46:59;98038.31;;;3.06;100.00
34586;BME280;20816;50.950;11.108;2022-12-07T14:49:45;98034.84;;;3.07;100.00
34586;BME280;20816;50.950;11.108;2022-12-07T14:52:25;98036.56;;;3.01;100.00
34586;BME280;20816;50.950;11.108;2022-12-07T14:55:25;98034.03;;;2.93;100.00
34586;BME280;20816;50.950;11.108;2022-12-07T14:57:52;98036.59;;;2.84;100.00
34586;BME280;20816;50.950;11.108;2022-12-07T15:00:22;98027.94;;;2.82;100.00